Time;durP1;ratioP1;P1;durP2;ratioP2;P2;SDS_P1;SDS_P2;PMS_P1;PMS_P2;Temp;Humidity;BMP_temperature;BMP_pressure;BME280_temperature;BME280_humidity;BME280_pressure;Samples;Min_cycle;Max_cycle;Signal;HPM_P1;HPM_P2
2023/04/23 00:01:25;;;;;;;;;;;13.90;66.40;;;;;;4148647;28;20028;-83
2023/04/23 00:03:27;;;;;;;;;;;13.80;66.00;;;;;;4137350;28;19924;-84
2023/04/23 00:05:28;;;;;;;;;;;13.90;66.20;;;;;;4130396;28;19914;-84
2023/04/23 00:07:30;;;;;;;;;;;13.80;66.10;;;;;;4136608;28;20405;-84
2023/04/23 00:09:31;;;;;;;;;;;13.80;66.70;;;;;;4135051;28;19921;-84
2023/04/23 00:11:32;;;;;;;;;;;13.80;67.00;;;;;;4136264;28;19922;-84
2023/04/23 00:13:33;;;;;;;;;;;13.80;67.70;;;;;;4138804;28;20350;-84
2023/04/23 00:15:34;;;;;;;;;;;13.70;67.00;;;;;;4130694;28;19926;-83
2023/04/23 00:17:34;;;;;;;;;;;13.70;67.30;;;;;;4132835;28;20043;-83
2023/04/23 00:19:35;;;;;;;;;;;13.70;67.20;;;;;;4150670;28;19919;-84
2023/04/23 00:21:35;;;;;;;;;;;13.80;68.70;;;;;;4136486;28;19960;-83
2023/04/23 00:23:36;;;;;;;;;;;13.70;69.00;;;;;;4134209;28;19918;-84
2023/04/23 00:25:37;;;;;;;;;;;13.60;69.10;;;;;;4147357;28;20762;-84
2023/04/23 00:27:37;;;;;;;;;;;13.60;68.30;;;;;;4132812;28;19968;-86
2023/04/23 00:29:38;;;;;;;;;;;13.60;68.90;;;;;;4153550;28;19925;-84
2023/04/23 00:31:39;;;;;;;;;;;13.50;69.30;;;;;;4152026;28;20272;-85
2023/04/23 00:33:40;;;;;;;;;;;13.50;68.80;;;;;;4136840;28;19995;-84
2023/04/23 00:35:40;;;;;;;;;;;13.60;69.20;;;;;;4119365;28;20401;-84
2023/04/23 00:37:41;;;;;;;;;;;13.50;69.90;;;;;;4135133;28;20336;-84
2023/04/23 00:39:41;;;;;;;;;;;13.40;69.20;;;;;;4147761;28;19921;-84
2023/04/23 00:41:43;;;;;;;;;;;13.40;68.50;;;;;;4150160;28;19939;-84
2023/04/23 00:43:44;;;;;;;;;;;13.40;67.90;;;;;;4104483;28;20474;-84
2023/04/23 00:45:45;;;;;;;;;;;13.40;67.70;;;;;;4133660;28;20411;-85
2023/04/23 00:47:47;;;;;;;;;;;13.30;68.00;;;;;;4136142;28;19953;-85
2023/04/23 00:49:49;;;;;;;;;;;13.30;68.20;;;;;;4144372;28;19917;-85
2023/04/23 00:51:50;;;;;;;;;;;13.30;68.80;;;;;;4131213;28;19910;-84
2023/04/23 00:53:50;;;;;;;;;;;13.20;68.50;;;;;;4142243;28;20007;-84
2023/04/23 00:55:51;;;;;;;;;;;13.30;68.30;;;;;;4151129;28;20462;-84
2023/04/23 00:57:53;;;;;;;;;;;13.20;68.60;;;;;;4130931;28;20467;-84
2023/04/23 00:59:57;;;;;;;;;;;13.20;68.50;;;;;;4148281;28;19917;-85
2023/04/23 01:01:57;;;;;;;;;;;13.10;68.50;;;;;;4142471;28;20489;-85
2023/04/23 01:04:00;;;;;;;;;;;13.00;68.60;;;;;;4121137;28;19921;-86
2023/04/23 01:06:02;;;;;;;;;;;13.00;69.20;;;;;;4133511;28;20000;-85
2023/04/23 01:08:02;;;;;;;;;;;13.00;68.30;;;;;;4130264;28;20411;-85
2023/04/23 01:10:04;;;;;;;;;;;12.90;68.20;;;;;;4145374;28;19928;-84
2023/04/23 01:12:04;;;;;;;;;;;12.90;68.50;;;;;;4131532;28;19918;-84
2023/04/23 01:14:05;;;;;;;;;;;12.90;69.00;;;;;;4136514;28;19913;-85
2023/04/23 01:16:07;;;;;;;;;;;12.80;69.80;;;;;;4119186;28;20037;-84
2023/04/23 01:18:11;;;;;;;;;;;12.80;68.80;;;;;;4128699;28;19924;-84
2023/04/23 01:20:12;;;;;;;;;;;12.80;68.40;;;;;;4132475;28;21079;-86
2023/04/23 01:22:13;;;;;;;;;;;12.80;68.50;;;;;;4150491;28;19956;-86
2023/04/23 01:24:14;;;;;;;;;;;12.80;68.50;;;;;;4135154;28;19917;-85
2023/04/23 01:26:14;;;;;;;;;;;12.70;68.30;;;;;;4148804;28;19917;-86
2023/04/23 01:28:15;;;;;;;;;;;12.70;68.10;;;;;;4157582;28;20013;-86
2023/04/23 01:30:19;;;;;;;;;;;12.60;68.10;;;;;;4135830;28;19932;-86
2023/04/23 01:32:20;;;;;;;;;;;12.70;68.00;;;;;;4147708;28;19917;-86
2023/04/23 01:34:41;;;;;;;;;;;12.60;68.80;;;;;;4155511;28;19983;-85
2023/04/23 01:37:02;;;;;;;;;;;12.50;68.50;;;;;;4149651;28;19917;-85
2023/04/23 01:39:04;;;;;;;;;;;12.60;69.00;;;;;;4133367;28;20450;-85
2023/04/23 01:41:04;;;;;;;;;;;12.40;68.90;;;;;;4132218;28;20426;-85
2023/04/23 01:43:05;;;;;;;;;;;12.40;68.70;;;;;;4138044;28;19961;-84
2023/04/23 01:45:06;;;;;;;;;;;12.40;68.90;;;;;;4128025;28;19918;-84
2023/04/23 01:47:08;;;;;;;;;;;12.30;68.80;;;;;;4135359;28;20051;-85
2023/04/23 01:49:09;;;;;;;;;;;12.30;69.30;;;;;;4153806;28;20015;-85
2023/04/23 01:51:10;;;;;;;;;;;12.20;69.10;;;;;;4139104;28;20056;-85
2023/04/23 01:53:11;;;;;;;;;;;12.20;69.30;;;;;;4118559;28;19922;-85
2023/04/23 01:55:13;;;;;;;;;;;12.10;69.90;;;;;;4121941;28;19920;-84
2023/04/23 01:57:25;;;;;;;;;;;12.10;69.70;;;;;;4139530;28;19917;-84
2023/04/23 01:59:28;;;;;;;;;;;12.00;69.90;;;;;;4135166;28;20531;-84
2023/04/23 02:01:45;;;;;;;;;;;12.00;69.50;;;;;;4148602;28;20015;-84
2023/04/23 02:03:48;;;;;;;;;;;11.90;69.30;;;;;;4126132;28;20426;-84
2023/04/23 02:05:49;;;;;;;;;;;11.90;70.10;;;;;;4138490;28;19922;-85
2023/04/23 02:07:50;;;;;;;;;;;11.80;69.60;;;;;;4152262;28;19918;-85
2023/04/23 02:09:51;;;;;;;;;;;11.70;69.60;;;;;;4136628;28;20398;-84
2023/04/23 02:11:52;;;;;;;;;;;11.70;70.00;;;;;;4133303;28;19914;-83
2023/04/23 02:13:54;;;;;;;;;;;11.70;70.10;;;;;;4148804;28;19913;-85
2023/04/23 02:15:55;;;;;;;;;;;11.50;70.10;;;;;;4118627;28;19970;-83
2023/04/23 02:17:55;;;;;;;;;;;11.50;70.20;;;;;;4134204;28;19922;-85
2023/04/23 02:19:56;;;;;;;;;;;11.60;70.30;;;;;;4152945;28;19917;-85
2023/04/23 02:21:56;;;;;;;;;;;11.40;70.60;;;;;;4150730;28;19924;-85
2023/04/23 02:23:57;;;;;;;;;;;11.50;70.70;;;;;;4118729;28;20008;-83
2023/04/23 02:25:57;;;;;;;;;;;11.40;70.90;;;;;;4132458;28;19918;-85
2023/04/23 02:28:00;;;;;;;;;;;11.30;71.20;;;;;;4131992;28;20004;-84
2023/04/23 02:30:01;;;;;;;;;;;11.20;70.90;;;;;;4134191;28;20097;-84
2023/04/23 02:32:02;;;;;;;;;;;11.10;70.80;;;;;;4150473;28;19943;-87
2023/04/23 02:34:02;;;;;;;;;;;11.10;71.10;;;;;;4132214;28;19993;-84
2023/04/23 02:36:11;;;;;;;;;;;11.00;71.40;;;;;;4148897;28;19917;-87
2023/04/23 02:38:11;;;;;;;;;;;10.90;71.20;;;;;;4133372;28;19928;-84
2023/04/23 02:40:12;;;;;;;;;;;10.90;71.70;;;;;;4128916;28;19921;-85
2023/04/23 02:42:12;;;;;;;;;;;10.80;72.10;;;;;;4136950;28;19913;-85
2023/04/23 02:44:13;;;;;;;;;;;10.70;72.00;;;;;;4127053;28;19918;-83
2023/04/23 02:46:16;;;;;;;;;;;10.70;72.20;;;;;;4113180;28;20251;-83
2023/04/23 02:48:17;;;;;;;;;;;10.60;72.10;;;;;;4131543;28;19918;-83
2023/04/23 02:50:18;;;;;;;;;;;10.50;72.30;;;;;;4133208;28;19921;-83
2023/04/23 02:52:19;;;;;;;;;;;10.50;72.00;;;;;;4135232;28;20008;-83
2023/04/23 02:54:20;;;;;;;;;;;10.50;72.60;;;;;;4148032;28;19922;-83
2023/04/23 02:56:21;;;;;;;;;;;10.40;72.40;;;;;;4138075;28;19914;-84
2023/04/23 02:58:25;;;;;;;;;;;10.40;72.20;;;;;;4126191;28;19925;-84
2023/04/23 03:00:37;;;;;;;;;;;10.40;72.20;;;;;;4122097;28;19939;-84
2023/04/23 03:02:58;;;;;;;;;;;10.30;72.50;;;;;;4136860;28;19913;-84
2023/04/23 03:05:18;;;;;;;;;;;10.30;72.50;;;;;;4139035;28;20210;-84
2023/04/23 03:07:19;;;;;;;;;;;10.30;72.60;;;;;;4151966;28;20027;-83
2023/04/23 03:09:23;;;;;;;;;;;10.30;72.60;;;;;;4137235;28;19909;-84
2023/04/23 03:11:23;;;;;;;;;;;10.20;72.60;;;;;;4148570;28;19991;-83
2023/04/23 03:13:25;;;;;;;;;;;10.10;73.00;;;;;;4153222;28;19917;-83
2023/04/23 03:15:30;;;;;;;;;;;10.20;73.20;;;;;;4123220;28;19914;-83
2023/04/23 03:17:52;;;;;;;;;;;10.10;72.70;;;;;;4148586;28;19939;-84
2023/04/23 03:20:13;;;;;;;;;;;10.20;73.30;;;;;;4149775;28;19917;-83
2023/04/23 03:22:34;;;;;;;;;;;10.10;73.00;;;;;;4148838;28;19979;-83
2023/04/23 03:24:45;;;;;;;;;;;10.10;73.00;;;;;;4148882;28;19917;-83
2023/04/23 03:27:06;;;;;;;;;;;10.10;72.90;;;;;;4145243;28;19944;-83
2023/04/23 03:29:27;;;;;;;;;;;10.10;72.80;;;;;;4132450;28;19917;-83
2023/04/23 03:31:39;;;;;;;;;;;10.20;72.90;;;;;;4131512;28;19972;-83
2023/04/23 03:34:00;;;;;;;;;;;10.10;72.90;;;;;;4133882;28;20126;-83
2023/04/23 03:36:21;;;;;;;;;;;10.10;73.00;;;;;;4136437;28;19945;-83
2023/04/23 03:38:22;;;;;;;;;;;10.10;72.90;;;;;;4128359;28;20510;-83
2023/04/23 03:40:42;;;;;;;;;;;10.10;73.10;;;;;;4149660;28;20031;-83
2023/04/23 03:43:02;;;;;;;;;;;10.20;73.00;;;;;;4136573;28;19999;-83
2023/04/23 03:45:24;;;;;;;;;;;10.00;73.00;;;;;;4143713;28;19956;-83
2023/04/23 03:47:44;;;;;;;;;;;10.10;72.90;;;;;;4132094;28;19913;-83
2023/04/23 03:50:06;;;;;;;;;;;10.00;72.80;;;;;;4130385;28;20890;-83
2023/04/23 03:52:26;;;;;;;;;;;10.00;73.10;;;;;;4140684;28;19913;-83
2023/04/23 03:54:47;;;;;;;;;;;10.10;73.20;;;;;;4136143;28;19917;-83
2023/04/23 03:57:08;;;;;;;;;;;10.00;72.80;;;;;;4153160;28;19943;-82
2023/04/23 03:59:28;;;;;;;;;;;10.00;73.00;;;;;;4144271;28;19933;-82
2023/04/23 04:01:36;;;;;;;;;;;10.00;72.80;;;;;;4121539;28;19964;-83
2023/04/23 04:03:49;;;;;;;;;;;9.90;72.90;;;;;;4181890;22;19990;-83
2023/04/23 04:08:42;;;;;;;;;;;10.00;72.90;;;;;;4146620;28;20359;-83
2023/04/23 04:10:43;;;;;;;;;;;9.90;72.60;;;;;;4149313;28;20042;-84
2023/04/23 04:17:22;;;;;;;;;;;9.90;72.60;;;;;;4448030;22;20021;-82
2023/04/23 04:19:26;;;;;;;;;;;9.80;72.50;;;;;;4134164;28;19922;-83
2023/04/23 04:21:27;;;;;;;;;;;9.80;72.40;;;;;;4133242;28;20556;-83
2023/04/23 04:23:28;;;;;;;;;;;9.80;72.30;;;;;;4133684;28;19941;-82
2023/04/23 04:25:28;;;;;;;;;;;9.80;72.10;;;;;;4120909;28;19980;-82
2023/04/23 04:27:32;;;;;;;;;;;9.80;72.00;;;;;;4149567;28;19921;-82
2023/04/23 04:29:33;;;;;;;;;;;9.70;71.90;;;;;;4133249;28;19929;-82
2023/04/23 04:31:34;;;;;;;;;;;9.80;71.90;;;;;;4120354;28;20425;-83
2023/04/23 04:33:35;;;;;;;;;;;9.60;71.90;;;;;;4151026;28;19921;-83
2023/04/23 04:35:35;;;;;;;;;;;9.70;71.90;;;;;;4136190;28;20016;-82
2023/04/23 04:37:36;;;;;;;;;;;9.70;71.90;;;;;;4149883;28;19967;-82
2023/04/23 04:39:36;;;;;;;;;;;9.70;71.80;;;;;;4154105;28;19917;-82
2023/04/23 04:41:37;;;;;;;;;;;9.60;71.70;;;;;;4161657;28;19924;-83
2023/04/23 04:43:38;;;;;;;;;;;9.70;71.70;;;;;;4158727;28;20010;-83
2023/04/23 04:45:39;;;;;;;;;;;9.60;71.60;;;;;;4150129;28;20375;-83
2023/04/23 04:47:40;;;;;;;;;;;9.60;71.60;;;;;;4130382;28;19918;-82
2023/04/23 04:49:41;;;;;;;;;;;9.60;71.60;;;;;;4146508;28;19913;-82
2023/04/23 04:51:41;;;;;;;;;;;9.70;71.70;;;;;;4131233;28;19956;-82
2023/04/23 04:53:42;;;;;;;;;;;9.60;71.70;;;;;;4133084;28;19928;-82
2023/04/23 04:55:43;;;;;;;;;;;9.70;71.70;;;;;;4133796;28;19913;-82
2023/04/23 04:57:43;;;;;;;;;;;9.60;71.70;;;;;;4152613;28;19917;-83
2023/04/23 04:59:44;;;;;;;;;;;9.60;71.90;;;;;;4150699;28;19917;-82
2023/04/23 05:01:45;;;;;;;;;;;9.60;71.70;;;;;;4152400;28;20012;-83
2023/04/23 05:03:45;;;;;;;;;;;9.50;72.50;;;;;;4117510;28;20392;-83
2023/04/23 05:05:47;;;;;;;;;;;9.50;71.50;;;;;;4132027;28;20056;-83
2023/04/23 05:07:47;;;;;;;;;;;9.50;71.30;;;;;;4118540;28;19925;-83
2023/04/23 05:09:48;;;;;;;;;;;9.50;71.30;;;;;;4130584;28;19917;-82
2023/04/23 05:11:49;;;;;;;;;;;9.50;71.30;;;;;;4133469;28;19928;-82
2023/04/23 05:13:49;;;;;;;;;;;9.50;71.30;;;;;;4151676;28;19921;-83
2023/04/23 05:15:50;;;;;;;;;;;9.50;71.40;;;;;;4131382;28;19933;-83
2023/04/23 05:17:52;;;;;;;;;;;9.50;71.30;;;;;;4130033;28;19921;-83
2023/04/23 05:19:52;;;;;;;;;;;9.50;71.30;;;;;;4149323;28;20017;-83
2023/04/23 05:21:53;;;;;;;;;;;9.50;71.20;;;;;;4130883;28;19968;-83
2023/04/23 05:23:54;;;;;;;;;;;9.50;71.20;;;;;;4149833;28;19917;-82
2023/04/23 05:25:55;;;;;;;;;;;9.50;71.20;;;;;;4151914;28;19928;-83
2023/04/23 05:27:57;;;;;;;;;;;9.50;71.20;;;;;;4147022;28;20312;-83
2023/04/23 05:29:58;;;;;;;;;;;9.50;71.30;;;;;;4132186;28;19925;-83
2023/04/23 05:31:58;;;;;;;;;;;9.40;71.10;;;;;;4149242;28;19944;-82
2023/04/23 05:34:00;;;;;;;;;;;9.40;71.20;;;;;;4147083;28;19929;-82
2023/04/23 05:36:00;;;;;;;;;;;9.40;71.10;;;;;;4150158;28;20450;-83
2023/04/23 05:38:01;;;;;;;;;;;9.40;71.20;;;;;;4116861;28;19949;-83
2023/04/23 05:40:04;;;;;;;;;;;9.40;71.10;;;;;;4136077;28;20091;-82
2023/04/23 05:42:05;;;;;;;;;;;9.40;71.20;;;;;;4113489;28;20021;-82
2023/04/23 05:44:06;;;;;;;;;;;9.50;71.30;;;;;;4115548;28;19928;-83
2023/04/23 05:46:06;;;;;;;;;;;9.40;71.30;;;;;;4130743;28;19917;-84
2023/04/23 05:48:07;;;;;;;;;;;9.50;71.30;;;;;;4112256;28;20134;-83
2023/04/23 05:50:08;;;;;;;;;;;9.50;71.30;;;;;;4132724;28;20211;-82
2023/04/23 05:52:08;;;;;;;;;;;9.50;71.50;;;;;;4111215;28;19914;-83
2023/04/23 05:54:09;;;;;;;;;;;9.50;71.40;;;;;;4132361;28;19922;-84
2023/04/23 05:56:09;;;;;;;;;;;9.50;71.40;;;;;;4134846;28;19968;-83
2023/04/23 05:58:10;;;;;;;;;;;9.50;71.50;;;;;;4131231;28;20068;-82
2023/04/23 06:00:11;;;;;;;;;;;9.60;71.50;;;;;;4134420;28;19918;-83
2023/04/23 06:02:11;;;;;;;;;;;9.60;71.60;;;;;;4149282;28;20409;-83
2023/04/23 06:04:12;;;;;;;;;;;9.70;71.60;;;;;;4149224;28;19913;-83
2023/04/23 06:06:13;;;;;;;;;;;9.60;71.60;;;;;;4144844;28;19932;-83
2023/04/23 06:08:13;;;;;;;;;;;9.70;71.60;;;;;;4148145;28;19944;-83
2023/04/23 06:10:14;;;;;;;;;;;9.70;71.60;;;;;;4151588;28;20036;-82
2023/04/23 06:12:15;;;;;;;;;;;9.80;71.60;;;;;;4119145;28;19918;-83
2023/04/23 06:14:15;;;;;;;;;;;9.80;71.60;;;;;;4137881;28;20621;-83
2023/04/23 06:16:16;;;;;;;;;;;9.80;71.50;;;;;;4152343;28;20510;-82
2023/04/23 06:18:16;;;;;;;;;;;9.90;71.40;;;;;;4137380;28;20579;-82
2023/04/23 06:20:17;;;;;;;;;;;9.90;71.30;;;;;;4136363;28;19917;-84
2023/04/23 06:22:18;;;;;;;;;;;9.90;71.20;;;;;;4154985;28;20024;-83
2023/04/23 06:24:18;;;;;;;;;;;9.90;71.20;;;;;;4139540;28;19956;-84
2023/04/23 06:26:19;;;;;;;;;;;10.00;71.50;;;;;;4138513;28;19929;-83
2023/04/23 06:28:20;;;;;;;;;;;10.00;70.70;;;;;;4136114;28;19963;-83
2023/04/23 06:30:21;;;;;;;;;;;10.00;70.70;;;;;;4153639;28;19921;-83
2023/04/23 06:32:21;;;;;;;;;;;10.10;70.70;;;;;;4137243;28;19932;-85
2023/04/23 06:34:22;;;;;;;;;;;10.10;70.80;;;;;;4121815;28;19914;-82
2023/04/23 06:36:23;;;;;;;;;;;10.20;70.80;;;;;;4154676;28;20006;-83
2023/04/23 06:38:24;;;;;;;;;;;10.20;70.80;;;;;;4139220;28;19921;-83
2023/04/23 06:40:24;;;;;;;;;;;10.20;71.70;;;;;;4134050;28;19953;-84
2023/04/23 06:42:25;;;;;;;;;;;10.30;71.10;;;;;;4142922;28;19914;-83
2023/04/23 06:44:25;;;;;;;;;;;10.30;71.00;;;;;;4167046;28;19917;-84
2023/04/23 06:46:26;;;;;;;;;;;10.50;71.20;;;;;;4128167;28;19918;-84
2023/04/23 06:48:26;;;;;;;;;;;10.50;71.20;;;;;;4170872;28;20280;-84
2023/04/23 06:50:27;;;;;;;;;;;10.50;71.10;;;;;;4146166;28;19932;-85
2023/04/23 06:52:27;;;;;;;;;;;10.60;71.10;;;;;;4144808;28;20011;-83
2023/04/23 06:54:28;;;;;;;;;;;10.60;70.60;;;;;;4135498;28;20330;-83
2023/04/23 06:56:29;;;;;;;;;;;10.70;70.40;;;;;;4155727;28;20457;-84
2023/04/23 06:58:32;;;;;;;;;;;10.70;69.40;;;;;;4159255;28;19932;-83
2023/04/23 07:00:33;;;;;;;;;;;10.80;68.90;;;;;;4153782;28;19913;-84
2023/04/23 07:02:33;;;;;;;;;;;10.80;68.30;;;;;;4154721;28;20586;-83
2023/04/23 07:04:35;;;;;;;;;;;10.80;68.60;;;;;;4156471;28;19924;-83
2023/04/23 07:06:35;;;;;;;;;;;10.90;68.30;;;;;;4151266;28;20006;-83
2023/04/23 07:08:36;;;;;;;;;;;10.90;68.10;;;;;;4151412;28;19921;-84
2023/04/23 07:10:36;;;;;;;;;;;10.90;68.20;;;;;;4153872;28;19932;-82
2023/04/23 07:12:37;;;;;;;;;;;11.00;67.50;;;;;;4139883;28;19921;-84
2023/04/23 07:14:38;;;;;;;;;;;11.00;67.80;;;;;;4158064;28;19948;-83
2023/04/23 07:16:38;;;;;;;;;;;11.00;67.90;;;;;;4156389;28;20402;-84
2023/04/23 07:18:39;;;;;;;;;;;11.00;67.90;;;;;;4151979;28;19921;-83
2023/04/23 07:20:39;;;;;;;;;;;11.10;68.00;;;;;;4139657;28;19927;-84
2023/04/23 07:22:40;;;;;;;;;;;11.10;67.90;;;;;;4135010;28;19957;-82
2023/04/23 07:24:40;;;;;;;;;;;11.20;67.80;;;;;;4138672;28;19922;-82
2023/04/23 07:26:41;;;;;;;;;;;11.20;67.70;;;;;;4140737;28;20391;-82
2023/04/23 07:28:41;;;;;;;;;;;11.20;67.50;;;;;;4158267;28;19984;-83
2023/04/23 07:30:42;;;;;;;;;;;11.20;67.20;;;;;;4156806;28;20008;-84
2023/04/23 07:32:42;;;;;;;;;;;11.30;67.10;;;;;;4139770;28;19976;-83
2023/04/23 07:34:43;;;;;;;;;;;11.30;66.90;;;;;;4153354;28;19921;-82
2023/04/23 07:36:47;;;;;;;;;;;11.30;66.70;;;;;;4150620;28;19944;-83
2023/04/23 07:38:47;;;;;;;;;;;11.30;66.60;;;;;;4153521;28;20449;-83
2023/04/23 07:40:48;;;;;;;;;;;11.30;66.70;;;;;;4154308;28;19925;-81
2023/04/23 07:42:49;;;;;;;;;;;11.40;66.60;;;;;;4150390;28;19917;-83
2023/04/23 07:44:50;;;;;;;;;;;11.30;66.80;;;;;;4132988;28;19917;-82
2023/04/23 07:46:51;;;;;;;;;;;11.40;66.60;;;;;;4124144;28;19980;-82
2023/04/23 07:48:52;;;;;;;;;;;11.40;66.60;;;;;;4155740;28;19913;-83
2023/04/23 07:50:53;;;;;;;;;;;11.40;66.00;;;;;;4154703;28;20008;-83
2023/04/23 07:52:53;;;;;;;;;;;11.40;66.20;;;;;;4138324;28;20452;-82
2023/04/23 07:54:54;;;;;;;;;;;11.40;66.20;;;;;;4156451;28;19917;-82
2023/04/23 07:56:56;;;;;;;;;;;11.40;66.30;;;;;;4160738;28;19917;-82
2023/04/23 07:58:59;;;;;;;;;;;11.50;66.40;;;;;;4139154;28;19917;-82
2023/04/23 08:01:01;;;;;;;;;;;11.50;66.30;;;;;;4138240;28;20437;-83
2023/04/23 08:03:01;;;;;;;;;;;11.60;66.30;;;;;;4141463;28;19948;-83
2023/04/23 08:05:02;;;;;;;;;;;11.60;65.60;;;;;;4140599;28;19955;-82
2023/04/23 08:07:02;;;;;;;;;;;11.60;65.70;;;;;;4156496;28;19949;-82
2023/04/23 08:09:06;;;;;;;;;;;11.60;65.40;;;;;;4136377;28;20025;-82
2023/04/23 08:11:06;;;;;;;;;;;11.60;65.70;;;;;;4153968;28;20025;-83
2023/04/23 08:13:07;;;;;;;;;;;11.70;66.00;;;;;;4141436;28;19918;-83
2023/04/23 08:15:07;;;;;;;;;;;11.70;66.00;;;;;;4158668;28;19917;-83
2023/04/23 08:17:08;;;;;;;;;;;11.80;66.10;;;;;;4144339;28;20016;-82
2023/04/23 08:19:09;;;;;;;;;;;11.90;66.00;;;;;;4138591;28;19922;-84
2023/04/23 08:21:11;;;;;;;;;;;11.90;65.70;;;;;;4138737;28;20560;-84
2023/04/23 08:23:12;;;;;;;;;;;11.90;65.50;;;;;;4138703;28;19913;-82
2023/04/23 08:25:12;;;;;;;;;;;12.00;64.30;;;;;;4156664;28;19917;-83
2023/04/23 08:27:13;;;;;;;;;;;12.00;64.30;;;;;;4141578;28;20009;-83
2023/04/23 08:29:13;;;;;;;;;;;12.00;64.60;;;;;;4160610;28;19980;-83
2023/04/23 08:31:15;;;;;;;;;;;12.10;64.50;;;;;;4160152;28;19921;-83
2023/04/23 08:33:15;;;;;;;;;;;12.10;64.60;;;;;;4150666;28;19920;-83
2023/04/23 08:35:16;;;;;;;;;;;12.20;64.50;;;;;;4165115;28;20008;-82
2023/04/23 08:37:17;;;;;;;;;;;12.30;64.40;;;;;;4139750;28;19921;-83
2023/04/23 08:39:17;;;;;;;;;;;12.30;64.30;;;;;;4141035;28;19916;-81
2023/04/23 08:41:20;;;;;;;;;;;12.50;64.70;;;;;;4178125;28;19915;-81
2023/04/23 08:43:24;;;;;;;;;;;12.50;64.40;;;;;;4181165;28;19905;-82
2023/04/23 08:45:25;;;;;;;;;;;12.50;64.20;;;;;;4176949;28;20052;-82
2023/04/23 08:47:28;;;;;;;;;;;12.60;63.00;;;;;;4145621;28;19906;-81
2023/04/23 08:49:31;;;;;;;;;;;12.70;63.90;;;;;;4165636;28;19921;-82
2023/04/23 08:51:34;;;;;;;;;;;12.80;63.70;;;;;;4138768;28;19925;-82
2023/04/23 08:53:35;;;;;;;;;;;12.80;62.80;;;;;;4157561;28;19927;-82
2023/04/23 08:55:36;;;;;;;;;;;12.80;60.00;;;;;;4158144;28;19917;-82
2023/04/23 08:57:40;;;;;;;;;;;12.80;60.50;;;;;;4142381;28;19941;-82
2023/04/23 08:59:40;;;;;;;;;;;12.80;60.60;;;;;;4122630;28;19928;-82
2023/04/23 09:01:41;;;;;;;;;;;12.80;60.90;;;;;;4152836;28;20620;-82
2023/04/23 09:03:42;;;;;;;;;;;12.90;60.80;;;;;;4139211;28;19949;-82
2023/04/23 09:05:43;;;;;;;;;;;12.90;61.00;;;;;;4152324;28;19917;-83
2023/04/23 09:07:43;;;;;;;;;;;12.90;60.30;;;;;;4137349;28;20024;-82
2023/04/23 09:09:44;;;;;;;;;;;12.90;60.30;;;;;;4155056;28;19917;-84
2023/04/23 09:11:45;;;;;;;;;;;12.90;60.70;;;;;;4123800;28;19918;-83
2023/04/23 09:13:45;;;;;;;;;;;13.00;60.50;;;;;;4121386;28;19914;-83
2023/04/23 09:15:46;;;;;;;;;;;13.00;60.90;;;;;;4154892;28;19917;-83
2023/04/23 09:17:48;;;;;;;;;;;13.00;60.90;;;;;;4141215;28;20413;-83
2023/04/23 09:19:50;;;;;;;;;;;13.00;60.60;;;;;;4155056;28;19921;-83
2023/04/23 09:21:51;;;;;;;;;;;13.00;60.10;;;;;;4134618;28;20415;-83
2023/04/23 09:23:52;;;;;;;;;;;13.00;60.30;;;;;;4154992;28;20010;-83
2023/04/23 09:25:52;;;;;;;;;;;13.00;60.30;;;;;;4136415;28;20451;-82
2023/04/23 09:27:53;;;;;;;;;;;13.10;59.80;;;;;;4139126;28;21094;-81
2023/04/23 09:29:56;;;;;;;;;;;13.00;59.90;;;;;;4137922;28;19917;-82
2023/04/23 09:32:08;;;;;;;;;;;13.20;60.30;;;;;;4140713;28;19969;-83
2023/04/23 09:34:09;;;;;;;;;;;13.10;60.50;;;;;;4132990;28;19972;-84
2023/04/23 09:36:13;;;;;;;;;;;13.20;60.60;;;;;;4151821;28;19925;-83
2023/04/23 09:38:13;;;;;;;;;;;13.20;60.60;;;;;;4132672;28;19917;-83
2023/04/23 09:40:14;;;;;;;;;;;13.30;60.60;;;;;;4133504;28;20061;-82
2023/04/23 09:42:15;;;;;;;;;;;13.30;60.70;;;;;;4151350;28;19925;-83
2023/04/23 09:44:16;;;;;;;;;;;13.40;61.00;;;;;;4153861;28;19948;-83
2023/04/23 09:46:17;;;;;;;;;;;13.40;60.60;;;;;;4153494;28;19913;-83
2023/04/23 09:48:19;;;;;;;;;;;13.50;60.70;;;;;;4152954;28;19921;-82
2023/04/23 09:50:31;;;;;;;;;;;13.50;60.20;;;;;;4154100;28;20018;-84
2023/04/23 09:52:37;;;;;;;;;;;13.50;60.40;;;;;;4140218;28;19917;-81
2023/04/23 09:54:37;;;;;;;;;;;13.60;59.10;;;;;;4138159;28;19918;-83
2023/04/23 09:56:39;;;;;;;;;;;13.60;59.80;;;;;;4139766;28;20694;-83
2023/04/23 09:58:40;;;;;;;;;;;13.60;59.20;;;;;;4139657;28;19922;-82
2023/04/23 10:00:41;;;;;;;;;;;13.60;59.40;;;;;;4135573;28;19918;-83
2023/04/23 10:02:45;;;;;;;;;;;13.60;59.40;;;;;;4155611;28;19921;-82
2023/04/23 10:04:49;;;;;;;;;;;13.60;58.30;;;;;;4154645;28;19917;-82
2023/04/23 10:06:54;;;;;;;;;;;13.60;58.10;;;;;;4139521;28;20379;-82
2023/04/23 10:08:55;;;;;;;;;;;13.60;58.60;;;;;;4136885;28;20386;-83
2023/04/23 10:10:56;;;;;;;;;;;13.70;59.10;;;;;;4153235;28;19921;-82
2023/04/23 10:12:56;;;;;;;;;;;13.70;58.90;;;;;;4138432;28;19917;-82
2023/04/23 10:14:58;;;;;;;;;;;13.70;59.00;;;;;;4156014;28;20670;-82
2023/04/23 10:17:00;;;;;;;;;;;13.80;59.30;;;;;;4150663;28;20012;-82
2023/04/23 10:19:00;;;;;;;;;;;13.80;58.70;;;;;;4155019;28;19928;-83
2023/04/23 10:21:01;;;;;;;;;;;13.90;58.30;;;;;;4141359;28;20242;-83
2023/04/23 10:23:02;;;;;;;;;;;14.00;58.40;;;;;;4139623;28;20323;-82
2023/04/23 10:25:07;;;;;;;;;;;14.10;58.50;;;;;;4138889;28;19914;-82
2023/04/23 10:27:10;;;;;;;;;;;14.10;58.70;;;;;;4122525;28;19918;-82
2023/04/23 10:29:13;;;;;;;;;;;14.20;59.00;;;;;;4155512;28;20024;-83
2023/04/23 10:31:16;;;;;;;;;;;14.20;58.30;;;;;;4136655;28;20629;-84
2023/04/23 10:33:17;;;;;;;;;;;14.30;58.60;;;;;;4152507;28;19921;-83
2023/04/23 10:35:17;;;;;;;;;;;14.40;58.60;;;;;;4134060;28;20501;-82
2023/04/23 10:37:19;;;;;;;;;;;14.40;58.10;;;;;;4133093;28;19918;-83
2023/04/23 10:39:20;;;;;;;;;;;14.50;58.40;;;;;;4155840;28;20016;-82
2023/04/23 10:41:28;;;;;;;;;;;14.60;58.00;;;;;;4135115;28;20012;-83
2023/04/23 10:43:29;;;;;;;;;;;14.60;58.00;;;;;;4156493;28;19940;-83
2023/04/23 10:45:33;;;;;;;;;;;14.70;58.10;;;;;;4138789;28;19921;-83
2023/04/23 10:47:40;;;;;;;;;;;14.80;57.70;;;;;;4138271;28;19917;-83
2023/04/23 10:49:44;;;;;;;;;;;14.80;57.50;;;;;;4155014;28;20032;-83
2023/04/23 10:51:46;;;;;;;;;;;14.80;57.50;;;;;;4124385;28;20654;-83
2023/04/23 10:53:53;;;;;;;;;;;14.90;56.70;;;;;;4123605;28;19998;-82
2023/04/23 10:56:03;;;;;;;;;;;15.00;55.80;;;;;;4156055;28;19929;-82
2023/04/23 10:58:07;;;;;;;;;;;15.00;56.60;;;;;;4130338;28;21445;-82
2023/04/23 11:00:09;;;;;;;;;;;15.10;56.90;;;;;;4144448;28;19925;-82
2023/04/23 11:02:13;;;;;;;;;;;15.10;57.00;;;;;;4143339;28;20000;-82
2023/04/23 11:04:23;;;;;;;;;;;15.20;57.20;;;;;;4141371;28;19917;-82
2023/04/23 11:06:42;;;;;;;;;;;15.20;57.00;;;;;;4152707;28;19920;-82
2023/04/23 11:08:55;;;;;;;;;;;15.30;55.90;;;;;;4167037;28;19917;-82
2023/04/23 11:10:57;;;;;;;;;;;15.30;56.40;;;;;;4140392;28;19928;-82
2023/04/23 11:13:18;;;;;;;;;;;15.40;56.40;;;;;;4137928;28;19917;-82
2023/04/23 11:15:18;;;;;;;;;;;15.50;56.10;;;;;;4165404;28;19917;-83
2023/04/23 11:17:23;;;;;;;;;;;15.50;55.90;;;;;;4136608;28;19928;-82
2023/04/23 11:19:24;;;;;;;;;;;15.60;55.60;;;;;;4130250;28;19913;-83
2023/04/23 11:21:43;;;;;;;;;;;15.60;56.20;;;;;;4140463;28;19924;-83
2023/04/23 11:23:44;;;;;;;;;;;15.70;55.70;;;;;;4138951;28;19921;-83
2023/04/23 11:25:45;;;;;;;;;;;15.70;56.10;;;;;;4111686;28;19922;-84
2023/04/23 11:27:47;;;;;;;;;;;15.80;56.50;;;;;;4133633;28;19972;-81
2023/04/23 11:29:47;;;;;;;;;;;15.90;56.40;;;;;;4135327;28;19952;-83
2023/04/23 11:31:53;;;;;;;;;;;16.00;54.90;;;;;;4127010;28;19929;-83
2023/04/23 11:33:54;;;;;;;;;;;16.00;55.90;;;;;;4142662;28;19917;-83
2023/04/23 11:36:14;;;;;;;;;;;;;;;;;;;;;
2023/04/23 11:38:30;;;;;;;;;;;16.10;52.60;;;;;;4150303;28;20375;-83
2023/04/23 11:40:39;;;;;;;;;;;16.20;54.10;;;;;;4135704;28;19933;-83
2023/04/23 11:42:50;;;;;;;;;;;16.20;53.50;;;;;;4130927;28;20357;-83
2023/04/23 11:44:51;;;;;;;;;;;16.20;52.60;;;;;;4134078;28;19949;-82
2023/04/23 11:47:00;;;;;;;;;;;16.40;52.30;;;;;;4115778;28;19929;-84
2023/04/23 11:49:38;;;;;;;;;;;16.30;52.30;;;;;;4136151;28;20339;-83
2023/04/23 11:52:03;;;;;;;;;;;16.40;52.60;;;;;;4132755;28;19933;-83
2023/04/23 11:54:04;;;;;;;;;;;16.40;51.10;;;;;;4147628;28;20659;-83
2023/04/23 11:56:08;;;;;;;;;;;16.40;52.40;;;;;;4132742;28;19951;-83
2023/04/23 12:00:34;;;;;;;;;;;16.50;52.00;;;;;;4164269;28;19921;-85
2023/04/23 12:02:38;;;;;;;;;;;16.50;51.40;;;;;;4149515;28;19917;-83
2023/04/23 12:05:04;;;;;;;;;;;16.60;51.10;;;;;;4163537;28;19953;-83
2023/04/23 12:07:08;;;;;;;;;;;16.60;50.90;;;;;;4135423;28;19924;-83
2023/04/23 12:09:10;;;;;;;;;;;16.60;51.70;;;;;;4134836;28;19921;-83
2023/04/23 12:11:24;;;;;;;;;;;16.70;48.70;;;;;;4149177;28;19925;-83